Pagrindinis puslapis
METAR-TAF:

METAR-TAF

Oro uostai :

Port Hardy, Britų Kolumbija, Kanada

platuma: 50-41N, ilguma: 127-22W, Aukštis: 22 m

Dabartinis oras

Ataskaita buvo paskelbta 57 minutes, ne 22:00 UTC
Vėjas 11 kt iš Šiaurės/Šiaurės Vakarų
Temperatūra 13°C
Drėgmė 72%
Slėgis 1012 hPa
Matomumas: 32.2 km
Su prošvaistėmis ne aukštis 4100 ft
Su prošvaistėmis ne aukštis 14000 ft

METAR: CYZT 302200Z 34011KT 20SM BKN041 BKN140 13/08 A2989 RMK SC6AC2 SLP122

Laikas: 15:57 (22:57 UTC)

Prognozė

Ataskaita buvo paskelbta 4 valandos ir 19 minutes, ne 18:38 UTC
Prognozė galioja nuo 30 metu 19 UTC su 31 metu 05 UTC
Vėjas 10 kt iš Šiaurės/Šiaurės Vakarų
Matomumas: 10 km
Mažai debesys ne aukštis 1500 ft
Išsisklaidę debesys ne aukštis 3000 ft
Su prošvaistėmis ne aukštis 15000 ft
Tapsmas
nuo 30 metu 21 UTC su 30 metu 23 UTC
Vėjas 12 kt iš Šiaurės/Šiaurės Vakarų su gūsio iki 22 kt

TAF: CYZT 301838Z 3019/3105 34010KT P6SM FEW015 SCT030 BKN150 BECMG 3021/3023 34012G22KT RMK NXT FCST BY 310100Z

Orai ataskaitas ir orų prognozės (METAR, TAF).

turimą stotys yra geltonos ir raudonos taškus žemėlapyje.

Perkelti pele per norėdami pamatyti stoties vardą.

Tada spustelėkite, norėdami matyti oro stebėjimo ir prognozės.

Norėdami pakeisti žemėlapį: spustelėkite ant žalios mygtukų su juodo kryžiaus žemyn,; žalią mygtuką su brūkšneliu, jei norite nutolinti; arba žalių rodyklių gretimoms žemėlapius.


METAR-TAF: